createdAt,value
2023-04-18T00:03:31.987Z,103058.44
2023-04-18T00:13:53.554Z,103048.09
2023-04-18T00:24:15.100Z,103041.97
2023-04-18T00:34:36.735Z,103048.03
2023-04-18T00:44:58.104Z,103041.94
2023-04-18T00:55:20.194Z,103042.84
2023-04-18T01:05:41.699Z,103032.47
2023-04-18T01:16:03.162Z,103041.16
2023-04-18T01:26:24.560Z,103040.22
2023-04-18T01:36:46.092Z,103034.13
2023-04-18T01:47:07.446Z,103040.16
2023-04-18T01:57:28.917Z,103037.56
2023-04-18T02:07:50.632Z,103043.56
2023-04-18T02:18:12.245Z,103044.44
2023-04-18T02:28:33.739Z,103039.19
2023-04-18T02:38:55.201Z,103045.13
2023-04-18T02:49:16.544Z,103047.78
2023-04-18T02:59:37.884Z,103056.25
2023-04-18T03:09:59.943Z,103062.25
2023-04-18T03:20:21.418Z,103056.25
2023-04-18T03:30:42.924Z,103061.41
2023-04-18T03:41:04.317Z,103069.16
2023-04-18T03:51:26.057Z,103077.66
2023-04-18T04:01:47.471Z,103072.41
2023-04-18T04:12:08.858Z,103081.78
2023-04-18T04:22:30.202Z,103089.47
2023-04-18T04:32:52.037Z,103087.72
2023-04-18T04:43:15.241Z,103095.47
2023-04-18T04:53:36.710Z,103093.78
2023-04-18T05:03:58.287Z,103105.78
2023-04-18T05:14:20.721Z,103109.25
2023-04-18T05:24:42.097Z,103097.28
2023-04-18T05:35:03.725Z,103109.28
2023-04-18T05:45:25.180Z,103114.38
2023-04-18T05:55:48.635Z,103122.88
2023-04-18T06:06:10.388Z,103135.09
2023-04-18T06:16:31.764Z,103137.84
2023-04-18T06:26:55.001Z,103140.56
2023-04-18T06:37:16.807Z,103146.66
2023-04-18T06:47:38.678Z,103148.72
2023-04-18T06:58:00.525Z,103152.56
2023-04-18T07:08:21.870Z,103153.78
2023-04-18T07:18:43.284Z,103154.00
2023-04-18T07:29:04.750Z,103152.41
2023-04-18T07:39:26.098Z,103154.41
2023-04-18T07:49:47.447Z,103163.28
2023-04-18T08:00:09.317Z,103153.88
2023-04-18T08:10:30.696Z,103150.47
2023-04-18T08:20:52.058Z,103166.19
2023-04-18T08:31:14.770Z,103155.88
2023-04-18T08:41:39.638Z,103153.47
2023-04-18T08:52:01.434Z,103171.69
2023-04-18T09:02:35.187Z,103158.81
2023-04-18T09:12:59.029Z,103162.38
2023-04-18T09:23:24.454Z,103160.72
2023-04-18T09:33:56.677Z,103163.34
2023-04-18T09:44:20.242Z,103153.84
2023-04-18T09:54:45.173Z,103157.31
2023-04-18T10:05:08.155Z,103152.09
2023-04-18T10:15:30.728Z,103148.59
2023-04-18T10:25:52.329Z,103137.31
2023-04-18T10:36:15.999Z,103129.44
2023-04-18T10:46:38.599Z,103122.28
2023-04-18T10:57:04.182Z,103114.44
2023-04-18T11:07:32.963Z,103108.50
2023-04-18T11:17:58.621Z,103106.69
2023-04-18T11:28:21.306Z,103109.94
2023-04-18T11:38:43.108Z,103112.53
2023-04-18T11:49:04.609Z,103100.94
2023-04-18T11:59:26.171Z,103104.53
2023-04-18T12:09:47.606Z,103109.09
2023-04-18T12:20:09.972Z,103098.66
2023-04-18T12:30:32.311Z,103103.00
2023-04-18T12:40:53.762Z,103098.47
2023-04-18T12:51:15.162Z,103094.81
2023-04-18T13:01:36.648Z,103094.94
2023-04-18T13:11:58.577Z,103092.56
2023-04-18T13:22:20.585Z,103096.84
2023-04-18T13:32:43.764Z,103085.66
2023-04-18T13:43:05.259Z,103069.28
2023-04-18T13:53:27.902Z,103070.94
2023-04-18T14:03:50.486Z,103057.97
2023-04-18T14:14:12.022Z,103072.03
2023-04-18T14:24:35.114Z,103055.56
2023-04-18T14:34:56.463Z,103050.03
2023-04-18T14:45:17.889Z,103056.66
2023-04-18T14:55:39.249Z,103039.22
2023-04-18T15:06:00.711Z,103049.91
2023-04-18T15:16:22.113Z,103040.72
2023-04-18T15:26:43.597Z,103053.47
2023-04-18T15:37:05.036Z,103049.84
2023-04-18T15:47:27.151Z,103046.50
2023-04-18T15:57:48.643Z,103031.06
2023-04-18T16:08:10.079Z,103035.53
2023-04-18T16:18:31.648Z,103041.75
2023-04-18T16:28:53.064Z,103045.75
2023-04-18T16:39:15.827Z,103042.66
2023-04-18T16:49:37.457Z,103030.34
2023-04-18T17:00:02.008Z,103035.81
2023-04-18T17:10:23.531Z,103027.72
2023-04-18T17:20:45.083Z,103046.44
2023-04-18T17:31:06.608Z,103041.56
2023-04-18T17:41:27.997Z,103048.78
2023-04-18T17:51:49.358Z,103063.72
2023-04-18T18:02:11.746Z,103070.75
2023-04-18T18:12:35.654Z,103085.69
2023-04-18T18:23:00.240Z,103093.63
2023-04-18T18:33:21.827Z,103097.25
2023-04-18T18:43:43.202Z,103104.25
2023-04-18T18:54:04.594Z,103109.53
2023-04-18T19:04:26.413Z,103113.06
2023-04-18T19:14:49.445Z,103119.13
2023-04-18T19:25:10.857Z,103132.13
2023-04-18T19:35:32.247Z,103135.59
2023-04-18T19:45:55.260Z,103141.69
2023-04-18T19:56:17.023Z,103138.25
2023-04-18T20:06:38.507Z,103149.50
2023-04-18T20:16:59.893Z,103165.97
2023-04-18T20:27:21.363Z,103167.69
2023-04-18T20:37:42.839Z,103162.47
2023-04-18T20:48:04.486Z,103173.72
2023-04-18T20:58:26.132Z,103177.16
2023-04-18T21:08:47.591Z,103185.78
2023-04-18T21:19:09.148Z,103183.13
2023-04-18T21:29:30.638Z,103195.16
2023-04-18T21:39:52.139Z,103204.59
2023-04-18T21:50:13.572Z,103205.41
2023-04-18T22:00:34.934Z,103205.41
2023-04-18T22:11:00.316Z,103191.53
2023-04-18T22:21:21.694Z,103197.50
2023-04-18T22:31:43.070Z,103213.88
2023-04-18T22:42:04.736Z,103199.97
2023-04-18T22:52:26.148Z,103212.88
2023-04-18T23:02:47.666Z,103206.78
2023-04-18T23:13:09.075Z,103212.75
2023-04-18T23:23:30.547Z,103211.78
2023-04-18T23:33:51.890Z,103222.13
2023-04-18T23:44:13.396Z,103226.31
2023-04-18T23:54:34.939Z,103225.13
